createdAt,value
2023-01-05T00:02:06.711Z,35.60
2023-01-05T00:04:33.618Z,47.40
2023-01-05T00:07:00.553Z,41.55
2023-01-05T00:09:27.225Z,46.97
2023-01-05T00:12:12.835Z,45.83
2023-01-05T00:14:58.073Z,36.95
2023-01-05T00:20:35.372Z,42.88
2023-01-05T00:23:02.562Z,39.38
2023-01-05T00:25:30.732Z,45.67
2023-01-05T00:28:01.157Z,46.38
2023-01-05T00:30:32.371Z,44.97
2023-01-05T00:32:59.018Z,39.33
2023-01-05T00:35:25.723Z,41.67
2023-01-05T00:37:52.571Z,41.67
2023-01-05T00:40:21.455Z,41.85
2023-01-05T00:42:48.451Z,43.13
2023-01-05T00:45:16.277Z,30.27
2023-01-05T00:47:43.276Z,47.63
2023-01-05T00:50:11.221Z,32.03
2023-01-05T00:52:38.023Z,43.40
2023-01-05T00:55:05.013Z,36.58
2023-01-05T00:57:31.922Z,50.53
2023-01-05T00:59:58.756Z,36.28
2023-01-05T01:02:25.416Z,34.35
2023-01-05T01:04:52.147Z,35.58
2023-01-05T01:07:19.131Z,37.47
2023-01-05T01:09:45.608Z,40.40
2023-01-05T01:12:12.296Z,31.38
2023-01-05T01:14:39.643Z,34.85
2023-01-05T01:17:06.764Z,40.00
2023-01-05T01:19:33.785Z,38.72
2023-01-05T01:22:02.104Z,43.25
2023-01-05T01:24:28.991Z,35.92
2023-01-05T01:26:56.340Z,37.65
2023-01-05T01:29:23.788Z,51.30
2023-01-05T01:31:51.977Z,39.70
2023-01-05T01:34:18.595Z,33.63
2023-01-05T01:36:45.510Z,43.42
2023-01-05T01:39:13.815Z,38.22
2023-01-05T01:41:44.431Z,37.90
2023-01-05T01:44:29.947Z,42.65
2023-01-05T01:46:56.942Z,29.52
2023-01-05T01:49:23.647Z,38.55
2023-01-05T01:51:50.579Z,34.63
2023-01-05T01:54:18.164Z,40.72
2023-01-05T01:56:55.434Z,38.50
2023-01-05T01:59:25.993Z,42.50
2023-01-05T02:01:54.167Z,47.78
2023-01-05T02:04:24.087Z,44.90
2023-01-05T02:06:51.471Z,45.97
2023-01-05T02:09:18.201Z,35.53
2023-01-05T02:11:47.896Z,43.08
2023-01-05T02:14:21.321Z,35.97
2023-01-05T02:17:00.275Z,39.42
2023-01-05T02:19:32.988Z,42.65
2023-01-05T02:22:25.864Z,32.25
2023-01-05T02:24:53.064Z,37.33
2023-01-05T02:27:38.591Z,46.70
2023-01-05T02:30:23.971Z,29.48
2023-01-05T02:33:13.696Z,35.65
2023-01-05T02:35:43.783Z,38.25
2023-01-05T02:38:18.288Z,43.17
2023-01-05T02:40:52.506Z,38.33
2023-01-05T02:43:20.883Z,42.33
2023-01-05T02:45:48.609Z,36.28
2023-01-05T02:48:15.437Z,31.70
2023-01-05T02:50:49.556Z,35.22
2023-01-05T02:53:24.534Z,38.53
2023-01-05T02:55:51.427Z,34.83
2023-01-05T02:58:21.908Z,34.72
2023-01-05T03:00:53.801Z,42.70
2023-01-05T03:03:44.969Z,39.22
2023-01-05T03:06:15.610Z,33.08
2023-01-05T03:08:50.365Z,33.33
2023-01-05T03:11:37.289Z,48.13
2023-01-05T03:14:12.716Z,39.03
2023-01-05T03:16:40.066Z,36.45
2023-01-05T03:19:30.405Z,40.22
2023-01-05T03:22:17.245Z,32.53
2023-01-05T03:25:04.331Z,40.63
2023-01-05T03:27:54.618Z,29.65
2023-01-05T03:30:45.026Z,35.88
2023-01-05T03:33:36.931Z,35.03
2023-01-05T03:36:06.903Z,38.22
2023-01-05T03:38:39.974Z,39.85
2023-01-05T03:41:10.395Z,37.72
2023-01-05T03:43:39.866Z,35.00
2023-01-05T03:46:25.475Z,32.97
2023-01-05T03:48:53.702Z,41.97
2023-01-05T03:51:21.170Z,45.58
2023-01-05T03:53:47.852Z,38.13
2023-01-05T03:56:14.559Z,40.78
2023-01-05T03:58:41.539Z,33.35
2023-01-05T04:01:08.688Z,35.50
2023-01-05T04:03:35.935Z,40.47
2023-01-05T04:06:05.931Z,37.45
2023-01-05T04:08:34.715Z,43.75
2023-01-05T04:11:10.981Z,33.63
2023-01-05T04:13:37.747Z,40.33
2023-01-05T04:16:05.348Z,34.60
2023-01-05T04:18:32.356Z,38.30
2023-01-05T04:20:59.159Z,42.78
2023-01-05T04:23:25.757Z,35.13
2023-01-05T04:25:54.500Z,46.13
2023-01-05T04:28:23.058Z,39.45
2023-01-05T04:30:50.616Z,37.88
2023-01-05T04:33:18.261Z,41.40
2023-01-05T04:35:44.981Z,44.90
2023-01-05T04:38:12.167Z,38.95
2023-01-05T04:40:38.866Z,46.08
2023-01-05T04:43:06.693Z,44.38
2023-01-05T04:45:34.137Z,48.88
2023-01-05T04:48:01.064Z,44.10
2023-01-05T04:50:28.243Z,37.17
2023-01-05T04:52:56.352Z,44.67
2023-01-05T04:55:23.233Z,44.17
2023-01-05T04:57:50.755Z,41.53
2023-01-05T05:00:19.813Z,41.05
2023-01-05T05:02:52.785Z,49.53
2023-01-05T05:05:23.129Z,35.92
2023-01-05T05:07:52.629Z,40.95
2023-01-05T05:10:19.225Z,42.20
2023-01-05T05:12:47.985Z,41.08
2023-01-05T05:15:15.296Z,40.70
2023-01-05T05:17:46.515Z,40.75
2023-01-05T05:20:14.891Z,48.95
2023-01-05T05:22:44.486Z,39.42
2023-01-05T05:25:14.677Z,42.97
2023-01-05T05:27:44.368Z,45.83
2023-01-05T05:30:11.163Z,45.97
2023-01-05T05:32:43.815Z,42.55
2023-01-05T05:35:11.098Z,41.97
2023-01-05T05:37:37.650Z,44.63
2023-01-05T05:40:04.723Z,39.05
2023-01-05T05:42:31.387Z,40.80
2023-01-05T05:44:58.039Z,51.80
2023-01-05T05:47:24.632Z,43.53
2023-01-05T05:49:51.684Z,43.08
2023-01-05T05:52:18.291Z,35.80
2023-01-05T05:54:44.956Z,43.63
2023-01-05T05:57:11.616Z,34.28
2023-01-05T05:59:38.789Z,46.83
2023-01-05T06:02:05.544Z,41.05
2023-01-05T06:04:32.428Z,46.45
2023-01-05T06:06:59.175Z,32.47
2023-01-05T06:09:25.865Z,36.25
2023-01-05T06:11:52.622Z,41.92
2023-01-05T06:14:19.251Z,42.13
2023-01-05T06:16:46.033Z,45.55
2023-01-05T06:19:12.895Z,41.58
2023-01-05T06:21:39.588Z,36.83
2023-01-05T06:24:06.487Z,42.13
2023-01-05T06:26:33.226Z,36.50
2023-01-05T06:28:59.935Z,38.63
2023-01-05T06:31:26.722Z,52.08
2023-01-05T06:33:53.643Z,42.72
2023-01-05T06:36:20.498Z,43.20
2023-01-05T06:39:05.621Z,40.35
2023-01-05T06:41:32.307Z,43.45
2023-01-05T06:43:58.855Z,37.03
2023-01-05T06:46:25.654Z,39.92
2023-01-05T06:48:52.390Z,35.65
2023-01-05T06:51:19.210Z,35.10
2023-01-05T06:53:45.857Z,32.10
2023-01-05T06:56:12.818Z,41.20
2023-01-05T06:58:39.390Z,35.60
2023-01-05T07:01:06.320Z,42.38
2023-01-05T07:03:33.214Z,42.10
2023-01-05T07:05:59.896Z,38.58
2023-01-05T07:08:26.686Z,35.90
2023-01-05T07:10:53.596Z,30.77
2023-01-05T07:13:21.256Z,35.22
2023-01-05T07:15:48.156Z,42.25
2023-01-05T07:18:14.705Z,41.47
2023-01-05T07:20:41.404Z,37.05
2023-01-05T07:23:07.951Z,37.58
2023-01-05T07:25:34.581Z,39.63
2023-01-05T07:28:01.255Z,32.63
2023-01-05T07:30:27.965Z,37.40
2023-01-05T07:32:57.755Z,44.25
2023-01-05T07:35:24.433Z,34.63
2023-01-05T07:37:51.367Z,46.08
2023-01-05T07:40:18.591Z,40.05
2023-01-05T07:42:50.078Z,42.85
2023-01-05T07:45:17.079Z,41.00
2023-01-05T07:47:43.669Z,43.35
2023-01-05T07:50:10.449Z,37.28
2023-01-05T07:52:37.245Z,39.65
2023-01-05T07:55:03.994Z,41.38
2023-01-05T07:57:30.631Z,37.08
2023-01-05T07:59:57.410Z,32.55
2023-01-05T08:02:24.017Z,39.10
2023-01-05T08:04:50.783Z,40.35
2023-01-05T08:07:17.473Z,37.13
2023-01-05T08:10:02.974Z,38.25
2023-01-05T08:12:31.134Z,38.42
2023-01-05T08:14:57.662Z,46.15
2023-01-05T08:17:24.406Z,35.38
2023-01-05T08:19:50.968Z,33.83
2023-01-05T08:22:17.651Z,41.55
2023-01-05T08:24:44.646Z,36.75
2023-01-05T08:27:11.525Z,38.30
2023-01-05T08:29:38.257Z,46.63
2023-01-05T08:32:05.073Z,54.53
2023-01-05T08:34:34.859Z,42.13
2023-01-05T08:37:01.878Z,54.20
2023-01-05T08:39:28.441Z,51.72
2023-01-05T08:42:00.487Z,39.90
2023-01-05T08:44:29.100Z,53.70
2023-01-05T08:46:55.765Z,50.40
2023-01-05T08:49:24.322Z,54.25
2023-01-05T08:51:50.988Z,43.80
2023-01-05T08:54:17.713Z,41.58
2023-01-05T08:56:44.383Z,57.03
2023-01-05T08:59:14.169Z,35.83
2023-01-05T09:01:40.899Z,39.95
2023-01-05T09:04:08.454Z,40.65
2023-01-05T09:06:35.181Z,38.85
2023-01-05T09:09:02.034Z,43.08
2023-01-05T09:11:28.646Z,39.75
2023-01-05T09:13:56.671Z,51.05
2023-01-05T09:16:42.953Z,55.58
2023-01-05T09:19:11.269Z,43.40
2023-01-05T09:21:39.737Z,46.20
2023-01-05T09:24:12.290Z,46.22
2023-01-05T09:26:39.220Z,41.78
2023-01-05T09:29:05.990Z,35.42
2023-01-05T09:31:35.658Z,36.47
2023-01-05T09:34:02.289Z,40.25
2023-01-05T09:36:29.130Z,44.58
2023-01-05T09:38:57.273Z,40.13
2023-01-05T09:41:33.135Z,37.28
2023-01-05T09:44:07.865Z,47.08
2023-01-05T09:49:02.592Z,38.53
2023-01-05T09:51:29.846Z,38.72
2023-01-05T09:53:56.878Z,37.92
2023-01-05T09:57:08.462Z,41.58
2023-01-05T09:59:26.584Z,36.00
2023-01-05T10:01:54.704Z,37.95
2023-01-05T10:04:30.102Z,38.05
2023-01-05T10:06:59.382Z,36.42
2023-01-05T10:09:28.938Z,40.03
2023-01-05T10:12:16.342Z,45.70
2023-01-05T10:14:46.260Z,35.92
2023-01-05T10:17:40.290Z,39.25
2023-01-05T10:20:01.360Z,41.15
2023-01-05T10:22:46.895Z,45.92
2023-01-05T10:25:26.537Z,48.42
2023-01-05T10:27:57.065Z,34.88
2023-01-05T10:30:25.592Z,41.22
2023-01-05T10:33:21.782Z,47.30
2023-01-05T10:36:04.291Z,33.53
2023-01-05T10:38:51.725Z,44.83
2023-01-05T10:41:21.106Z,41.90
2023-01-05T10:43:52.750Z,39.17
2023-01-05T10:46:41.942Z,36.97
2023-01-05T10:49:08.751Z,45.40
2023-01-05T10:51:36.605Z,43.30
2023-01-05T10:54:03.643Z,45.70
2023-01-05T10:56:31.692Z,37.95
2023-01-05T10:59:08.720Z,37.60
2023-01-05T11:01:36.109Z,41.00
2023-01-05T11:04:28.920Z,40.80
2023-01-05T11:06:52.691Z,40.10
2023-01-05T11:09:22.586Z,38.33
2023-01-05T11:11:56.136Z,44.17
2023-01-05T11:14:23.174Z,35.35
2023-01-05T11:16:51.767Z,43.38
2023-01-05T11:19:19.431Z,36.65
2023-01-05T11:21:46.154Z,45.83
2023-01-05T11:24:25.158Z,31.75
2023-01-05T11:26:55.680Z,42.47
2023-01-05T11:29:22.674Z,38.30
2023-01-05T11:31:55.556Z,38.00
2023-01-05T11:34:28.446Z,37.53
2023-01-05T11:37:04.049Z,32.67
2023-01-05T11:39:38.761Z,36.25
2023-01-05T11:42:10.223Z,31.02
2023-01-05T11:44:37.653Z,33.60
2023-01-05T11:47:05.445Z,31.27
2023-01-05T11:49:32.327Z,31.20
2023-01-05T11:51:58.972Z,32.13
2023-01-05T11:54:34.033Z,38.20
2023-01-05T11:57:07.340Z,30.10
2023-01-05T11:59:37.604Z,36.70
2023-01-05T12:02:07.386Z,33.55
2023-01-05T12:04:50.623Z,27.38
2023-01-05T12:07:24.388Z,31.58
2023-01-05T12:10:06.674Z,38.15
2023-01-05T12:12:33.309Z,29.98
2023-01-05T12:15:06.023Z,32.70
2023-01-05T12:17:51.686Z,28.65
2023-01-05T12:20:18.645Z,39.20
2023-01-05T12:22:57.080Z,31.77
2023-01-05T12:25:30.113Z,35.80
2023-01-05T12:28:35.762Z,40.28
2023-01-05T12:34:23.045Z,32.95
2023-01-05T12:37:02.676Z,35.35
2023-01-05T12:39:48.494Z,26.73
2023-01-05T12:42:27.441Z,26.25
2023-01-05T12:45:02.030Z,26.58
2023-01-05T12:50:01.464Z,25.35
2023-01-05T12:52:40.294Z,27.70
2023-01-05T12:55:19.111Z,26.70
2023-01-05T12:57:49.091Z,37.78
2023-01-05T13:00:18.529Z,33.03
2023-01-05T13:02:51.725Z,26.55
2023-01-05T13:05:37.105Z,22.25
2023-01-05T13:08:05.022Z,28.92
2023-01-05T13:10:57.958Z,26.27
2023-01-05T13:13:27.417Z,23.75
2023-01-05T13:16:06.220Z,30.33
2023-01-05T13:18:35.473Z,21.60
2023-01-05T13:21:08.036Z,25.98
2023-01-05T13:23:42.085Z,22.55
2023-01-05T13:26:15.394Z,24.73
2023-01-05T13:28:42.438Z,25.30
2023-01-05T13:31:23.995Z,22.75
2023-01-05T13:34:09.986Z,23.23
2023-01-05T13:36:39.083Z,21.92
2023-01-05T13:39:24.429Z,16.05
2023-01-05T13:42:04.980Z,21.77
2023-01-05T13:44:31.668Z,20.55
2023-01-05T13:47:01.317Z,24.33
2023-01-05T13:49:34.082Z,17.70
2023-01-05T13:52:03.955Z,14.93
2023-01-05T13:55:00.095Z,13.30
2023-01-05T13:57:29.485Z,11.80
2023-01-05T14:00:06.594Z,10.70
2023-01-05T14:02:43.288Z,11.23
2023-01-05T14:05:25.413Z,12.27
2023-01-05T14:07:54.327Z,11.20
2023-01-05T14:10:23.578Z,9.15
2023-01-05T14:12:51.279Z,11.02
2023-01-05T14:15:31.610Z,11.40
2023-01-05T14:17:59.431Z,11.27
2023-01-05T14:20:46.831Z,12.00
2023-01-05T14:23:23.090Z,9.80
2023-01-05T14:25:53.895Z,15.77
2023-01-05T14:28:29.373Z,10.23
2023-01-05T14:31:28.070Z,12.30
2023-01-05T14:33:54.921Z,11.98
2023-01-05T14:36:26.479Z,12.57
2023-01-05T14:38:53.396Z,11.95
2023-01-05T14:41:26.658Z,7.13
2023-01-05T14:44:05.257Z,9.88
2023-01-05T14:46:48.552Z,8.65
2023-01-05T14:49:20.154Z,10.10
2023-01-05T14:51:57.040Z,10.10
2023-01-05T14:54:42.017Z,12.50
2023-01-05T14:57:26.937Z,11.50
2023-01-05T15:00:00.147Z,9.80
2023-01-05T15:02:29.613Z,8.73
2023-01-05T15:05:00.280Z,5.78
2023-01-05T15:07:45.821Z,9.05
2023-01-05T15:10:19.791Z,7.93
2023-01-05T15:12:52.318Z,11.27
2023-01-05T15:15:55.113Z,10.10
2023-01-05T15:20:54.519Z,8.30
2023-01-05T15:23:26.824Z,9.25
2023-01-05T15:26:03.332Z,12.05
2023-01-05T15:28:53.048Z,10.73
2023-01-05T15:31:38.794Z,13.73
2023-01-05T15:36:40.703Z,12.35
2023-01-05T15:39:45.987Z,9.57
2023-01-05T15:42:15.523Z,12.57
2023-01-05T15:44:46.095Z,8.30
2023-01-05T15:47:12.860Z,11.60
2023-01-05T15:49:40.183Z,10.38
2023-01-05T15:52:17.147Z,9.52
2023-01-05T15:54:43.749Z,8.52
2023-01-05T15:57:20.099Z,7.88
2023-01-05T15:59:48.536Z,6.00
2023-01-05T16:02:28.871Z,5.93
2023-01-05T16:05:27.833Z,8.20
2023-01-05T16:07:54.883Z,8.38
2023-01-05T16:10:24.529Z,6.85
2023-01-05T16:12:53.855Z,5.85
2023-01-05T16:15:22.013Z,7.57
2023-01-05T16:17:50.438Z,7.90
2023-01-05T16:20:22.983Z,9.35
2023-01-05T16:23:04.556Z,7.90
2023-01-05T16:28:05.648Z,8.45
2023-01-05T16:30:38.103Z,5.95
2023-01-05T16:33:13.549Z,10.85
2023-01-05T16:35:44.483Z,6.20
2023-01-05T16:38:11.260Z,6.40
2023-01-05T16:40:47.156Z,5.80
2023-01-05T16:43:18.765Z,5.05
2023-01-05T16:45:45.734Z,6.40
2023-01-05T16:48:32.287Z,8.57
2023-01-05T16:51:02.103Z,7.15
2023-01-05T16:53:28.959Z,9.00
2023-01-05T16:55:59.546Z,8.20
2023-01-05T16:58:29.197Z,8.18
2023-01-05T17:01:14.462Z,7.18
2023-01-05T17:03:42.005Z,8.10
2023-01-05T17:06:31.826Z,10.65
2023-01-05T17:09:00.649Z,9.02
2023-01-05T17:11:30.563Z,8.93
2023-01-05T17:13:57.430Z,10.15
2023-01-05T17:16:24.188Z,11.00
2023-01-05T17:18:51.116Z,13.43
2023-01-05T17:21:19.540Z,15.57
2023-01-05T17:23:48.472Z,15.05
2023-01-05T17:26:21.044Z,11.45
2023-01-05T17:28:47.726Z,14.13
2023-01-05T17:33:41.261Z,14.45
2023-01-05T17:36:08.051Z,17.42
2023-01-05T17:38:34.564Z,14.70
2023-01-05T17:41:01.550Z,10.30
2023-01-05T17:43:28.631Z,14.80
2023-01-05T17:45:55.816Z,11.18
2023-01-05T17:48:22.634Z,8.23
2023-01-05T17:50:52.015Z,11.70
2023-01-05T17:53:20.889Z,12.25
2023-01-05T17:55:47.798Z,13.68
2023-01-05T17:58:14.768Z,8.77
2023-01-05T18:03:15.683Z,9.07
2023-01-05T18:08:10.371Z,17.52
2023-01-05T18:10:37.847Z,9.70
2023-01-05T18:13:04.673Z,10.15
2023-01-05T18:15:31.298Z,10.98
2023-01-05T18:17:58.461Z,8.93
2023-01-05T18:20:25.620Z,9.93
2023-01-05T18:22:52.230Z,14.15
2023-01-05T18:25:18.953Z,10.88
2023-01-05T18:27:45.847Z,10.68
2023-01-05T18:30:12.986Z,9.52
2023-01-05T18:32:40.231Z,10.73
2023-01-05T18:35:10.081Z,10.43
2023-01-05T18:37:37.792Z,9.55
2023-01-05T18:40:04.626Z,10.70
2023-01-05T18:42:31.343Z,10.23
2023-01-05T18:44:58.832Z,13.10
2023-01-05T18:47:25.824Z,9.10
2023-01-05T18:49:54.851Z,13.52
2023-01-05T18:52:21.871Z,9.85
2023-01-05T18:54:48.380Z,9.63
2023-01-05T18:57:14.973Z,10.57
2023-01-05T18:59:41.863Z,12.60
2023-01-05T19:02:13.051Z,13.70
2023-01-05T19:04:39.754Z,9.63
2023-01-05T19:07:06.419Z,8.63
2023-01-05T19:09:33.589Z,8.15
2023-01-05T19:12:00.478Z,8.25
2023-01-05T19:14:27.168Z,9.65
2023-01-05T19:16:54.442Z,12.57
2023-01-05T19:19:21.284Z,10.93
2023-01-05T19:21:48.010Z,10.38
2023-01-05T19:24:16.889Z,13.27
2023-01-05T19:26:44.220Z,12.85
2023-01-05T19:29:11.499Z,10.90
2023-01-05T19:31:38.554Z,10.57
2023-01-05T19:34:05.924Z,15.27
2023-01-05T19:36:32.933Z,10.07
2023-01-05T19:39:01.069Z,8.10
2023-01-05T19:41:27.790Z,9.98
2023-01-05T19:43:55.810Z,11.75
2023-01-05T19:46:23.582Z,12.13
2023-01-05T19:48:51.830Z,11.80
2023-01-05T19:51:22.004Z,8.80
2023-01-05T19:53:56.600Z,10.82
2023-01-05T19:56:24.442Z,11.02
2023-01-05T19:58:53.788Z,12.10
2023-01-05T20:01:21.019Z,14.10
2023-01-05T20:03:48.181Z,13.73
2023-01-05T20:06:18.363Z,12.73
2023-01-05T20:08:52.497Z,19.25
2023-01-05T20:11:36.087Z,12.77
2023-01-05T20:14:17.271Z,10.50
2023-01-05T20:16:48.608Z,6.80
2023-01-05T20:19:15.658Z,12.88
2023-01-05T20:21:42.625Z,10.32
2023-01-05T20:24:13.520Z,16.10
2023-01-05T20:26:42.016Z,12.95
2023-01-05T20:29:09.186Z,11.50
2023-01-05T20:31:37.568Z,11.27
2023-01-05T20:34:08.368Z,13.63
2023-01-05T20:36:35.677Z,11.25
2023-01-05T20:39:05.984Z,24.17
2023-01-05T20:41:37.603Z,12.55
2023-01-05T20:44:04.694Z,15.48
2023-01-05T20:46:32.544Z,16.17
2023-01-05T20:48:59.694Z,11.32
2023-01-05T20:51:26.383Z,18.15
2023-01-05T20:53:53.860Z,11.13
2023-01-05T20:56:22.309Z,14.07
2023-01-05T20:58:50.204Z,13.02
2023-01-05T21:01:18.476Z,10.73
2023-01-05T21:03:45.478Z,9.50
2023-01-05T21:06:15.063Z,14.63
2023-01-05T21:08:42.025Z,14.00
2023-01-05T21:11:16.001Z,11.07
2023-01-05T21:13:43.485Z,8.43
2023-01-05T21:16:11.388Z,13.07
2023-01-05T21:18:38.086Z,10.10
2023-01-05T21:21:05.116Z,13.05
2023-01-05T21:23:34.171Z,10.18
2023-01-05T21:26:05.523Z,9.07
2023-01-05T21:28:35.291Z,17.00
2023-01-05T21:31:03.252Z,10.55
2023-01-05T21:33:30.261Z,7.53
2023-01-05T21:35:57.459Z,12.30
2023-01-05T21:38:24.787Z,7.95
2023-01-05T21:40:51.925Z,5.72
2023-01-05T21:43:18.591Z,8.00
2023-01-05T21:45:45.340Z,6.80
2023-01-05T21:48:12.049Z,6.57
2023-01-05T21:50:58.071Z,6.80
2023-01-05T21:53:43.061Z,6.80
2023-01-05T21:56:28.232Z,5.80
2023-01-05T21:58:55.766Z,7.72
2023-01-05T22:01:23.051Z,4.97
2023-01-05T22:03:50.233Z,6.25
2023-01-05T22:06:17.519Z,8.60
2023-01-05T22:08:44.733Z,6.90
2023-01-05T22:11:11.443Z,8.55
2023-01-05T22:13:38.737Z,9.98
2023-01-05T22:16:05.885Z,13.07
2023-01-05T22:18:32.676Z,11.32
2023-01-05T22:21:00.413Z,8.10
2023-01-05T22:23:27.996Z,7.20
2023-01-05T22:25:59.051Z,14.88
2023-01-05T22:28:25.888Z,8.38
2023-01-05T22:30:53.007Z,7.72
2023-01-05T22:33:19.639Z,8.80
2023-01-05T22:35:46.300Z,5.18
2023-01-05T22:38:13.219Z,4.97
2023-01-05T22:40:42.014Z,5.28
2023-01-05T22:43:09.822Z,7.07
2023-01-05T22:45:36.497Z,10.25
2023-01-05T22:48:03.213Z,8.75
2023-01-05T22:50:29.963Z,10.82
2023-01-05T22:52:56.782Z,10.95
2023-01-05T22:55:23.447Z,8.23
2023-01-05T22:57:51.322Z,5.20
2023-01-05T23:00:20.382Z,6.05
2023-01-05T23:02:47.144Z,6.55
2023-01-05T23:05:14.460Z,6.28
2023-01-05T23:07:41.387Z,7.05
2023-01-05T23:10:08.399Z,10.77
2023-01-05T23:12:35.435Z,12.73
2023-01-05T23:15:02.046Z,10.25
2023-01-05T23:17:28.886Z,9.00
2023-01-05T23:19:55.617Z,12.85
2023-01-05T23:22:22.193Z,7.57
2023-01-05T23:24:48.871Z,6.22
2023-01-05T23:27:15.767Z,8.60
2023-01-05T23:29:42.350Z,8.43
2023-01-05T23:32:09.048Z,7.40
2023-01-05T23:34:35.652Z,9.80
2023-01-05T23:37:02.476Z,8.45
2023-01-05T23:39:29.103Z,7.32
2023-01-05T23:41:56.148Z,7.63
2023-01-05T23:44:22.668Z,10.52
2023-01-05T23:46:52.303Z,11.32
2023-01-05T23:49:18.956Z,10.48
2023-01-05T23:51:45.593Z,8.27
2023-01-05T23:54:12.356Z,7.57
2023-01-05T23:56:38.861Z,12.70
2023-01-05T23:59:06.555Z,9.98
